sensor_id;sensor_type;location;lat;lon;timestamp;P1;durP1;ratioP1;P2;durP2;ratioP2
9809;SDS011;4944;52.514;13.192;2022-11-11T00:02:20;5.67;;;3.13;;
9809;SDS011;4944;52.514;13.192;2022-11-11T00:04:47;5.20;;;2.33;;
9809;SDS011;4944;52.514;13.192;2022-11-11T00:07:14;9.77;;;2.50;;
9809;SDS011;4944;52.514;13.192;2022-11-11T00:09:41;5.23;;;2.67;;
9809;SDS011;4944;52.514;13.192;2022-11-11T00:12:08;7.53;;;2.93;;
9809;SDS011;4944;52.514;13.192;2022-11-11T00:14:36;3.80;;;2.43;;
9809;SDS011;4944;52.514;13.192;2022-11-11T00:17:05;8.33;;;2.87;;
9809;SDS011;4944;52.514;13.192;2022-11-11T00:19:49;5.90;;;2.60;;
9809;SDS011;4944;52.514;13.192;2022-11-11T00:22:39;5.00;;;2.23;;
9809;SDS011;4944;52.514;13.192;2022-11-11T00:25:23;5.93;;;2.63;;
9809;SDS011;4944;52.514;13.192;2022-11-11T00:27:50;5.57;;;2.80;;
9809;SDS011;4944;52.514;13.192;2022-11-11T00:30:18;6.37;;;2.70;;
9809;SDS011;4944;52.514;13.192;2022-11-11T00:32:45;5.30;;;2.30;;
9809;SDS011;4944;52.514;13.192;2022-11-11T00:35:12;5.57;;;2.30;;
9809;SDS011;4944;52.514;13.192;2022-11-11T00:38:03;5.73;;;2.33;;
9809;SDS011;4944;52.514;13.192;2022-11-11T00:40:32;4.43;;;2.43;;
9809;SDS011;4944;52.514;13.192;2022-11-11T00:42:59;7.23;;;2.93;;
9809;SDS011;4944;52.514;13.192;2022-11-11T00:45:27;4.27;;;2.20;;
9809;SDS011;4944;52.514;13.192;2022-11-11T00:47:54;6.27;;;2.30;;
9809;SDS011;4944;52.514;13.192;2022-11-11T00:50:38;5.67;;;2.60;;
9809;SDS011;4944;52.514;13.192;2022-11-11T00:53:24;7.83;;;2.50;;
9809;SDS011;4944;52.514;13.192;2022-11-11T00:55:52;5.07;;;2.20;;
9809;SDS011;4944;52.514;13.192;2022-11-11T00:58:19;4.67;;;2.27;;
9809;SDS011;4944;52.514;13.192;2022-11-11T01:00:48;7.07;;;2.73;;
9809;SDS011;4944;52.514;13.192;2022-11-11T01:03:17;5.80;;;2.43;;
9809;SDS011;4944;52.514;13.192;2022-11-11T01:05:44;2.70;;;2.27;;
9809;SDS011;4944;52.514;13.192;2022-11-11T01:08:12;5.70;;;2.20;;
9809;SDS011;4944;52.514;13.192;2022-11-11T01:10:39;4.23;;;2.10;;
9809;SDS011;4944;52.514;13.192;2022-11-11T01:13:12;6.70;;;2.70;;
9809;SDS011;4944;52.514;13.192;2022-11-11T01:15:43;4.57;;;2.40;;
9809;SDS011;4944;52.514;13.192;2022-11-11T01:18:13;7.27;;;2.33;;
9809;SDS011;4944;52.514;13.192;2022-11-11T01:20:42;6.63;;;2.47;;
9809;SDS011;4944;52.514;13.192;2022-11-11T01:23:10;7.27;;;2.47;;
9809;SDS011;4944;52.514;13.192;2022-11-11T01:25:40;9.93;;;3.10;;
9809;SDS011;4944;52.514;13.192;2022-11-11T01:28:08;3.47;;;2.30;;
9809;SDS011;4944;52.514;13.192;2022-11-11T01:30:35;4.83;;;2.33;;
9809;SDS011;4944;52.514;13.192;2022-11-11T01:33:02;5.87;;;2.80;;
9809;SDS011;4944;52.514;13.192;2022-11-11T01:35:31;6.93;;;2.40;;
9809;SDS011;4944;52.514;13.192;2022-11-11T01:38:02;5.13;;;2.83;;
9809;SDS011;4944;52.514;13.192;2022-11-11T01:40:29;6.37;;;2.90;;
9809;SDS011;4944;52.514;13.192;2022-11-11T01:45:46;5.43;;;2.80;;
9809;SDS011;4944;52.514;13.192;2022-11-11T01:48:16;5.20;;;2.77;;
9809;SDS011;4944;52.514;13.192;2022-11-11T01:51:06;6.47;;;2.63;;
9809;SDS011;4944;52.514;13.192;2022-11-11T01:53:40;5.17;;;2.63;;
9809;SDS011;4944;52.514;13.192;2022-11-11T01:56:07;7.00;;;2.93;;
9809;SDS011;4944;52.514;13.192;2022-11-11T01:58:36;5.60;;;2.40;;
9809;SDS011;4944;52.514;13.192;2022-11-11T02:01:03;5.13;;;2.20;;
9809;SDS011;4944;52.514;13.192;2022-11-11T02:03:32;6.27;;;2.60;;
9809;SDS011;4944;52.514;13.192;2022-11-11T02:06:07;5.77;;;2.63;;
9809;SDS011;4944;52.514;13.192;2022-11-11T02:08:33;8.13;;;2.47;;
9809;SDS011;4944;52.514;13.192;2022-11-11T02:11:03;5.47;;;2.47;;
9809;SDS011;4944;52.514;13.192;2022-11-11T02:13:36;5.07;;;2.33;;
9809;SDS011;4944;52.514;13.192;2022-11-11T02:16:22;6.60;;;2.63;;
9809;SDS011;4944;52.514;13.192;2022-11-11T02:18:49;6.50;;;2.33;;
9809;SDS011;4944;52.514;13.192;2022-11-11T02:21:19;4.97;;;1.97;;
9809;SDS011;4944;52.514;13.192;2022-11-11T02:23:57;6.57;;;2.37;;
9809;SDS011;4944;52.514;13.192;2022-11-11T02:26:29;3.77;;;2.27;;
9809;SDS011;4944;52.514;13.192;2022-11-11T02:29:00;4.30;;;2.33;;
9809;SDS011;4944;52.514;13.192;2022-11-11T02:31:28;5.47;;;2.37;;
9809;SDS011;4944;52.514;13.192;2022-11-11T02:33:57;5.43;;;2.40;;
9809;SDS011;4944;52.514;13.192;2022-11-11T02:36:24;5.20;;;2.30;;
9809;SDS011;4944;52.514;13.192;2022-11-11T02:38:51;4.30;;;2.23;;
9809;SDS011;4944;52.514;13.192;2022-11-11T02:41:20;5.33;;;2.30;;
9809;SDS011;4944;52.514;13.192;2022-11-11T02:44:04;4.07;;;2.30;;
9809;SDS011;4944;52.514;13.192;2022-11-11T02:46:31;4.73;;;2.57;;
9809;SDS011;4944;52.514;13.192;2022-11-11T02:48:58;4.03;;;2.37;;
9809;SDS011;4944;52.514;13.192;2022-11-11T02:51:25;4.53;;;2.33;;
9809;SDS011;4944;52.514;13.192;2022-11-11T02:53:51;4.03;;;2.33;;
9809;SDS011;4944;52.514;13.192;2022-11-11T02:56:24;5.03;;;2.10;;
9809;SDS011;4944;52.514;13.192;2022-11-11T02:59:04;3.70;;;2.30;;
9809;SDS011;4944;52.514;13.192;2022-11-11T03:01:31;6.47;;;2.70;;
9809;SDS011;4944;52.514;13.192;2022-11-11T03:03:58;3.20;;;2.30;;
9809;SDS011;4944;52.514;13.192;2022-11-11T03:06:25;4.53;;;2.67;;
9809;SDS011;4944;52.514;13.192;2022-11-11T03:08:52;3.43;;;1.97;;
9809;SDS011;4944;52.514;13.192;2022-11-11T03:11:19;5.13;;;2.40;;
9809;SDS011;4944;52.514;13.192;2022-11-11T03:13:54;4.63;;;1.90;;
9809;SDS011;4944;52.514;13.192;2022-11-11T03:16:21;7.90;;;2.90;;
9809;SDS011;4944;52.514;13.192;2022-11-11T03:19:08;5.50;;;2.40;;
9809;SDS011;4944;52.514;13.192;2022-11-11T03:21:35;4.50;;;2.10;;
9809;SDS011;4944;52.514;13.192;2022-11-11T03:24:02;5.03;;;2.07;;
9809;SDS011;4944;52.514;13.192;2022-11-11T03:26:30;3.70;;;2.07;;
9809;SDS011;4944;52.514;13.192;2022-11-11T03:28:57;5.50;;;2.10;;
9809;SDS011;4944;52.514;13.192;2022-11-11T03:31:24;6.67;;;2.20;;
9809;SDS011;4944;52.514;13.192;2022-11-11T03:33:51;3.63;;;2.07;;
9809;SDS011;4944;52.514;13.192;2022-11-11T03:36:18;5.70;;;2.47;;
9809;SDS011;4944;52.514;13.192;2022-11-11T03:39:05;7.47;;;3.17;;
9809;SDS011;4944;52.514;13.192;2022-11-11T03:41:31;3.13;;;2.37;;
9809;SDS011;4944;52.514;13.192;2022-11-11T03:43:59;5.83;;;2.50;;
9809;SDS011;4944;52.514;13.192;2022-11-11T03:46:26;4.63;;;2.50;;
9809;SDS011;4944;52.514;13.192;2022-11-11T03:48:53;4.10;;;2.40;;
9809;SDS011;4944;52.514;13.192;2022-11-11T03:51:20;5.00;;;2.63;;
9809;SDS011;4944;52.514;13.192;2022-11-11T03:53:47;5.73;;;2.30;;
9809;SDS011;4944;52.514;13.192;2022-11-11T03:56:14;2.80;;;2.50;;
9809;SDS011;4944;52.514;13.192;2022-11-11T03:58:41;4.03;;;2.50;;
9809;SDS011;4944;52.514;13.192;2022-11-11T04:01:09;5.33;;;2.77;;
9809;SDS011;4944;52.514;13.192;2022-11-11T04:03:56;6.70;;;2.20;;
9809;SDS011;4944;52.514;13.192;2022-11-11T04:06:40;6.47;;;2.70;;
9809;SDS011;4944;52.514;13.192;2022-11-11T04:09:24;4.73;;;2.33;;
9809;SDS011;4944;52.514;13.192;2022-11-11T04:12:08;5.17;;;2.47;;
9809;SDS011;4944;52.514;13.192;2022-11-11T04:14:35;6.47;;;2.23;;
9809;SDS011;4944;52.514;13.192;2022-11-11T04:17:20;5.27;;;2.60;;
9809;SDS011;4944;52.514;13.192;2022-11-11T04:19:47;2.93;;;2.40;;
9809;SDS011;4944;52.514;13.192;2022-11-11T04:22:32;5.13;;;2.40;;
9809;SDS011;4944;52.514;13.192;2022-11-11T04:24:58;3.97;;;2.30;;
9809;SDS011;4944;52.514;13.192;2022-11-11T04:27:43;4.17;;;2.30;;
9809;SDS011;4944;52.514;13.192;2022-11-11T04:30:10;8.53;;;2.60;;
9809;SDS011;4944;52.514;13.192;2022-11-11T04:32:37;4.50;;;2.43;;
9809;SDS011;4944;52.514;13.192;2022-11-11T04:35:05;4.13;;;2.33;;
9809;SDS011;4944;52.514;13.192;2022-11-11T04:37:36;7.20;;;2.87;;
9809;SDS011;4944;52.514;13.192;2022-11-11T04:40:10;4.57;;;2.30;;
9809;SDS011;4944;52.514;13.192;2022-11-11T04:42:54;6.03;;;2.90;;
9809;SDS011;4944;52.514;13.192;2022-11-11T04:45:21;4.30;;;2.27;;
9809;SDS011;4944;52.514;13.192;2022-11-11T04:47:57;4.23;;;2.60;;
9809;SDS011;4944;52.514;13.192;2022-11-11T04:50:25;5.20;;;2.37;;
9809;SDS011;4944;52.514;13.192;2022-11-11T04:52:53;4.93;;;2.50;;
9809;SDS011;4944;52.514;13.192;2022-11-11T04:55:21;5.00;;;2.60;;
9809;SDS011;4944;52.514;13.192;2022-11-11T04:58:05;5.17;;;2.20;;
9809;SDS011;4944;52.514;13.192;2022-11-11T05:00:32;2.70;;;2.30;;
9809;SDS011;4944;52.514;13.192;2022-11-11T05:03:01;4.37;;;2.23;;
9809;SDS011;4944;52.514;13.192;2022-11-11T05:05:43;5.77;;;2.50;;
9809;SDS011;4944;52.514;13.192;2022-11-11T05:08:28;3.70;;;2.27;;
9809;SDS011;4944;52.514;13.192;2022-11-11T05:11:12;4.83;;;2.40;;
9809;SDS011;4944;52.514;13.192;2022-11-11T05:13:40;6.07;;;2.60;;
9809;SDS011;4944;52.514;13.192;2022-11-11T05:16:27;4.67;;;2.40;;
9809;SDS011;4944;52.514;13.192;2022-11-11T05:19:15;7.03;;;3.00;;
9809;SDS011;4944;52.514;13.192;2022-11-11T05:22:03;6.03;;;2.47;;
9809;SDS011;4944;52.514;13.192;2022-11-11T05:24:34;3.67;;;2.20;;
9809;SDS011;4944;52.514;13.192;2022-11-11T05:27:18;5.97;;;2.30;;
9809;SDS011;4944;52.514;13.192;2022-11-11T05:29:46;5.00;;;2.33;;
9809;SDS011;4944;52.514;13.192;2022-11-11T05:32:15;4.10;;;2.30;;
9809;SDS011;4944;52.514;13.192;2022-11-11T05:34:44;4.37;;;2.20;;
9809;SDS011;4944;52.514;13.192;2022-11-11T05:37:11;4.00;;;2.27;;
9809;SDS011;4944;52.514;13.192;2022-11-11T05:39:38;3.53;;;1.87;;
9809;SDS011;4944;52.514;13.192;2022-11-11T05:42:05;4.97;;;2.47;;
9809;SDS011;4944;52.514;13.192;2022-11-11T05:44:33;4.10;;;2.10;;
9809;SDS011;4944;52.514;13.192;2022-11-11T05:47:00;5.87;;;2.30;;
9809;SDS011;4944;52.514;13.192;2022-11-11T05:49:29;2.43;;;1.93;;
9809;SDS011;4944;52.514;13.192;2022-11-11T05:51:58;4.37;;;2.53;;
9809;SDS011;4944;52.514;13.192;2022-11-11T05:54:25;6.30;;;2.83;;
9809;SDS011;4944;52.514;13.192;2022-11-11T05:56:52;4.73;;;3.00;;
9809;SDS011;4944;52.514;13.192;2022-11-11T05:59:19;4.40;;;2.77;;
9809;SDS011;4944;52.514;13.192;2022-11-11T06:01:46;2.77;;;2.27;;
9809;SDS011;4944;52.514;13.192;2022-11-11T06:04:13;4.53;;;2.40;;
9809;SDS011;4944;52.514;13.192;2022-11-11T06:06:39;3.60;;;2.47;;
9809;SDS011;4944;52.514;13.192;2022-11-11T06:09:08;5.13;;;2.50;;
9809;SDS011;4944;52.514;13.192;2022-11-11T06:11:35;5.17;;;2.43;;
9809;SDS011;4944;52.514;13.192;2022-11-11T06:14:02;5.43;;;2.40;;
9809;SDS011;4944;52.514;13.192;2022-11-11T06:16:29;4.43;;;2.10;;
9809;SDS011;4944;52.514;13.192;2022-11-11T06:18:56;5.50;;;2.20;;
9809;SDS011;4944;52.514;13.192;2022-11-11T06:21:23;6.27;;;2.50;;
9809;SDS011;4944;52.514;13.192;2022-11-11T06:23:50;2.43;;;2.20;;
9809;SDS011;4944;52.514;13.192;2022-11-11T06:26:18;2.60;;;2.30;;
9809;SDS011;4944;52.514;13.192;2022-11-11T06:28:46;7.40;;;2.53;;
9809;SDS011;4944;52.514;13.192;2022-11-11T06:31:14;4.70;;;2.70;;
9809;SDS011;4944;52.514;13.192;2022-11-11T06:33:42;7.33;;;2.50;;
9809;SDS011;4944;52.514;13.192;2022-11-11T06:36:09;3.40;;;2.60;;
9809;SDS011;4944;52.514;13.192;2022-11-11T06:38:37;3.00;;;2.20;;
9809;SDS011;4944;52.514;13.192;2022-11-11T06:41:04;6.00;;;2.23;;
9809;SDS011;4944;52.514;13.192;2022-11-11T06:43:32;5.43;;;2.40;;
9809;SDS011;4944;52.514;13.192;2022-11-11T06:45:59;4.03;;;2.03;;
9809;SDS011;4944;52.514;13.192;2022-11-11T06:48:27;8.53;;;2.90;;
9809;SDS011;4944;52.514;13.192;2022-11-11T06:50:54;5.67;;;2.50;;
9809;SDS011;4944;52.514;13.192;2022-11-11T06:53:27;6.43;;;2.77;;
9809;SDS011;4944;52.514;13.192;2022-11-11T06:55:54;2.97;;;2.30;;
9809;SDS011;4944;52.514;13.192;2022-11-11T06:58:22;3.67;;;2.37;;
9809;SDS011;4944;52.514;13.192;2022-11-11T07:00:51;3.13;;;2.33;;
9809;SDS011;4944;52.514;13.192;2022-11-11T07:03:18;5.93;;;3.07;;
9809;SDS011;4944;52.514;13.192;2022-11-11T07:05:46;4.47;;;2.40;;
9809;SDS011;4944;52.514;13.192;2022-11-11T07:08:14;5.77;;;2.60;;
9809;SDS011;4944;52.514;13.192;2022-11-11T07:10:42;4.97;;;2.43;;
9809;SDS011;4944;52.514;13.192;2022-11-11T07:13:10;4.67;;;2.33;;
9809;SDS011;4944;52.514;13.192;2022-11-11T07:15:37;4.63;;;2.30;;
9809;SDS011;4944;52.514;13.192;2022-11-11T07:18:05;3.90;;;2.30;;
9809;SDS011;4944;52.514;13.192;2022-11-11T07:20:32;5.80;;;2.40;;
9809;SDS011;4944;52.514;13.192;2022-11-11T07:22:59;3.97;;;1.83;;
9809;SDS011;4944;52.514;13.192;2022-11-11T07:25:26;3.17;;;2.17;;
9809;SDS011;4944;52.514;13.192;2022-11-11T07:27:53;5.00;;;2.27;;
9809;SDS011;4944;52.514;13.192;2022-11-11T07:30:20;2.97;;;2.30;;
9809;SDS011;4944;52.514;13.192;2022-11-11T07:32:47;4.90;;;2.37;;
9809;SDS011;4944;52.514;13.192;2022-11-11T07:35:17;5.37;;;2.30;;
9809;SDS011;4944;52.514;13.192;2022-11-11T07:37:44;3.83;;;2.33;;
9809;SDS011;4944;52.514;13.192;2022-11-11T07:40:12;3.87;;;2.07;;
9809;SDS011;4944;52.514;13.192;2022-11-11T07:42:41;3.10;;;2.00;;
9809;SDS011;4944;52.514;13.192;2022-11-11T07:45:09;5.80;;;2.60;;
9809;SDS011;4944;52.514;13.192;2022-11-11T07:47:37;4.23;;;2.00;;
9809;SDS011;4944;52.514;13.192;2022-11-11T07:50:05;5.63;;;2.33;;
9809;SDS011;4944;52.514;13.192;2022-11-11T07:52:34;4.90;;;2.40;;
9809;SDS011;4944;52.514;13.192;2022-11-11T07:55:02;2.57;;;2.03;;
9809;SDS011;4944;52.514;13.192;2022-11-11T07:57:29;5.03;;;2.23;;
9809;SDS011;4944;52.514;13.192;2022-11-11T07:59:56;4.83;;;2.40;;
9809;SDS011;4944;52.514;13.192;2022-11-11T08:02:23;4.63;;;2.67;;
9809;SDS011;4944;52.514;13.192;2022-11-11T08:04:50;4.47;;;2.30;;
9809;SDS011;4944;52.514;13.192;2022-11-11T08:07:17;3.80;;;2.47;;
9809;SDS011;4944;52.514;13.192;2022-11-11T08:09:45;7.00;;;2.70;;
9809;SDS011;4944;52.514;13.192;2022-11-11T08:12:12;2.90;;;2.40;;
9809;SDS011;4944;52.514;13.192;2022-11-11T08:14:57;2.83;;;1.83;;
9809;SDS011;4944;52.514;13.192;2022-11-11T08:17:23;2.00;;;1.77;;
9809;SDS011;4944;52.514;13.192;2022-11-11T08:19:50;2.20;;;2.00;;
9809;SDS011;4944;52.514;13.192;2022-11-11T08:22:17;2.67;;;2.13;;
9809;SDS011;4944;52.514;13.192;2022-11-11T08:24:45;3.17;;;1.93;;
9809;SDS011;4944;52.514;13.192;2022-11-11T08:27:12;4.17;;;2.10;;
9809;SDS011;4944;52.514;13.192;2022-11-11T08:29:39;3.20;;;2.30;;
9809;SDS011;4944;52.514;13.192;2022-11-11T08:32:06;4.33;;;1.93;;
9809;SDS011;4944;52.514;13.192;2022-11-11T08:34:33;3.40;;;2.17;;
9809;SDS011;4944;52.514;13.192;2022-11-11T08:37:00;5.10;;;2.00;;
9809;SDS011;4944;52.514;13.192;2022-11-11T08:39:27;3.70;;;2.10;;
9809;SDS011;4944;52.514;13.192;2022-11-11T08:41:55;3.90;;;1.90;;
9809;SDS011;4944;52.514;13.192;2022-11-11T08:44:22;4.33;;;1.80;;
9809;SDS011;4944;52.514;13.192;2022-11-11T08:46:49;2.57;;;2.07;;
9809;SDS011;4944;52.514;13.192;2022-11-11T08:49:15;3.60;;;1.90;;
9809;SDS011;4944;52.514;13.192;2022-11-11T08:51:42;3.60;;;1.70;;
9809;SDS011;4944;52.514;13.192;2022-11-11T08:54:09;3.47;;;1.93;;
9809;SDS011;4944;52.514;13.192;2022-11-11T08:56:36;2.80;;;1.67;;
9809;SDS011;4944;52.514;13.192;2022-11-11T08:59:05;3.10;;;1.90;;
9809;SDS011;4944;52.514;13.192;2022-11-11T09:01:33;4.13;;;1.80;;
9809;SDS011;4944;52.514;13.192;2022-11-11T09:04:00;4.73;;;2.00;;
9809;SDS011;4944;52.514;13.192;2022-11-11T09:06:27;5.63;;;2.00;;
9809;SDS011;4944;52.514;13.192;2022-11-11T09:08:54;3.77;;;1.73;;
9809;SDS011;4944;52.514;13.192;2022-11-11T09:11:21;4.10;;;1.83;;
9809;SDS011;4944;52.514;13.192;2022-11-11T09:13:48;3.73;;;1.90;;
9809;SDS011;4944;52.514;13.192;2022-11-11T09:16:17;3.20;;;1.90;;
9809;SDS011;4944;52.514;13.192;2022-11-11T09:18:44;3.63;;;1.60;;
9809;SDS011;4944;52.514;13.192;2022-11-11T09:21:11;2.97;;;1.87;;
9809;SDS011;4944;52.514;13.192;2022-11-11T09:23:38;2.40;;;1.83;;
9809;SDS011;4944;52.514;13.192;2022-11-11T09:26:05;2.73;;;1.50;;
9809;SDS011;4944;52.514;13.192;2022-11-11T09:28:32;3.87;;;1.70;;
9809;SDS011;4944;52.514;13.192;2022-11-11T09:30:59;3.03;;;1.60;;
9809;SDS011;4944;52.514;13.192;2022-11-11T09:33:28;2.60;;;1.77;;
9809;SDS011;4944;52.514;13.192;2022-11-11T09:35:56;4.90;;;1.67;;
9809;SDS011;4944;52.514;13.192;2022-11-11T09:38:24;3.03;;;1.57;;
9809;SDS011;4944;52.514;13.192;2022-11-11T09:40:53;5.30;;;1.87;;
9809;SDS011;4944;52.514;13.192;2022-11-11T09:43:29;1.87;;;1.37;;
9809;SDS011;4944;52.514;13.192;2022-11-11T09:46:10;4.27;;;1.60;;
9809;SDS011;4944;52.514;13.192;2022-11-11T09:49:00;3.00;;;1.67;;
9809;SDS011;4944;52.514;13.192;2022-11-11T09:51:42;4.37;;;1.70;;
9809;SDS011;4944;52.514;13.192;2022-11-11T09:54:14;2.27;;;1.70;;
9809;SDS011;4944;52.514;13.192;2022-11-11T09:56:43;2.17;;;1.60;;
9809;SDS011;4944;52.514;13.192;2022-11-11T09:59:11;4.13;;;1.80;;
9809;SDS011;4944;52.514;13.192;2022-11-11T10:01:43;3.73;;;1.60;;
9809;SDS011;4944;52.514;13.192;2022-11-11T10:04:19;1.73;;;1.40;;
9809;SDS011;4944;52.514;13.192;2022-11-11T10:06:53;3.97;;;1.70;;
9809;SDS011;4944;52.514;13.192;2022-11-11T10:09:26;3.70;;;1.60;;
9809;SDS011;4944;52.514;13.192;2022-11-11T10:12:00;3.63;;;1.33;;
9809;SDS011;4944;52.514;13.192;2022-11-11T10:14:33;1.90;;;1.60;;
9809;SDS011;4944;52.514;13.192;2022-11-11T10:17:04;2.87;;;1.50;;
9809;SDS011;4944;52.514;13.192;2022-11-11T10:19:44;2.43;;;1.70;;
9809;SDS011;4944;52.514;13.192;2022-11-11T10:22:19;2.30;;;1.50;;
9809;SDS011;4944;52.514;13.192;2022-11-11T10:24:48;3.07;;;1.70;;
9809;SDS011;4944;52.514;13.192;2022-11-11T10:27:28;3.67;;;1.53;;
9809;SDS011;4944;52.514;13.192;2022-11-11T10:29:58;1.47;;;1.37;;
9809;SDS011;4944;52.514;13.192;2022-11-11T10:32:33;2.23;;;1.40;;
9809;SDS011;4944;52.514;13.192;2022-11-11T10:35:12;1.87;;;1.50;;
9809;SDS011;4944;52.514;13.192;2022-11-11T10:37:42;1.40;;;1.30;;
9809;SDS011;4944;52.514;13.192;2022-11-11T10:40:12;1.93;;;1.50;;
9809;SDS011;4944;52.514;13.192;2022-11-11T10:42:43;4.17;;;1.43;;
9809;SDS011;4944;52.514;13.192;2022-11-11T10:45:12;1.97;;;1.50;;
9809;SDS011;4944;52.514;13.192;2022-11-11T10:47:46;3.63;;;1.50;;
9809;SDS011;4944;52.514;13.192;2022-11-11T10:50:22;2.53;;;1.80;;
9809;SDS011;4944;52.514;13.192;2022-11-11T10:52:53;2.37;;;1.40;;
9809;SDS011;4944;52.514;13.192;2022-11-11T10:55:26;1.90;;;1.73;;
9809;SDS011;4944;52.514;13.192;2022-11-11T10:57:58;2.07;;;1.50;;
9809;SDS011;4944;52.514;13.192;2022-11-11T11:00:29;3.47;;;1.90;;
9809;SDS011;4944;52.514;13.192;2022-11-11T11:03:00;2.13;;;1.67;;
9809;SDS011;4944;52.514;13.192;2022-11-11T11:05:35;3.43;;;2.00;;
9809;SDS011;4944;52.514;13.192;2022-11-11T11:08:08;2.23;;;2.00;;
9809;SDS011;4944;52.514;13.192;2022-11-11T11:10:40;2.77;;;1.90;;
9809;SDS011;4944;52.514;13.192;2022-11-11T11:13:11;2.80;;;1.80;;
9809;SDS011;4944;52.514;13.192;2022-11-11T11:15:43;2.00;;;1.50;;
9809;SDS011;4944;52.514;13.192;2022-11-11T11:18:18;2.30;;;1.80;;
9809;SDS011;4944;52.514;13.192;2022-11-11T11:20:55;1.83;;;1.67;;
9809;SDS011;4944;52.514;13.192;2022-11-11T11:23:33;2.53;;;1.67;;
9809;SDS011;4944;52.514;13.192;2022-11-11T11:26:02;1.97;;;1.60;;
9809;SDS011;4944;52.514;13.192;2022-11-11T11:28:29;2.60;;;1.40;;
9809;SDS011;4944;52.514;13.192;2022-11-11T11:31:00;2.63;;;1.73;;
9809;SDS011;4944;52.514;13.192;2022-11-11T11:33:37;3.37;;;1.83;;
9809;SDS011;4944;52.514;13.192;2022-11-11T11:36:18;1.53;;;1.40;;
9809;SDS011;4944;52.514;13.192;2022-11-11T11:38:46;2.40;;;1.77;;
9809;SDS011;4944;52.514;13.192;2022-11-11T11:41:15;3.63;;;1.80;;
9809;SDS011;4944;52.514;13.192;2022-11-11T11:43:43;2.50;;;1.70;;
9809;SDS011;4944;52.514;13.192;2022-11-11T11:46:15;3.47;;;1.73;;
9809;SDS011;4944;52.514;13.192;2022-11-11T11:48:55;2.80;;;1.90;;
9809;SDS011;4944;52.514;13.192;2022-11-11T11:51:38;3.70;;;1.80;;
9809;SDS011;4944;52.514;13.192;2022-11-11T11:54:25;3.80;;;1.87;;
9809;SDS011;4944;52.514;13.192;2022-11-11T11:57:10;2.33;;;2.00;;
9809;SDS011;4944;52.514;13.192;2022-11-11T11:59:51;3.93;;;2.00;;
9809;SDS011;4944;52.514;13.192;2022-11-11T12:02:30;2.43;;;1.50;;
9809;SDS011;4944;52.514;13.192;2022-11-11T12:05:17;1.90;;;1.57;;
9809;SDS011;4944;52.514;13.192;2022-11-11T12:07:57;3.03;;;2.10;;
9809;SDS011;4944;52.514;13.192;2022-11-11T12:10:37;3.40;;;1.80;;
9809;SDS011;4944;52.514;13.192;2022-11-11T12:13:13;5.20;;;2.20;;
9809;SDS011;4944;52.514;13.192;2022-11-11T12:15:49;3.73;;;1.47;;
9809;SDS011;4944;52.514;13.192;2022-11-11T12:18:39;2.23;;;1.50;;
9809;SDS011;4944;52.514;13.192;2022-11-11T12:21:20;2.30;;;1.43;;
9809;SDS011;4944;52.514;13.192;2022-11-11T12:23:53;2.37;;;1.77;;
9809;SDS011;4944;52.514;13.192;2022-11-11T12:26:24;2.77;;;1.37;;
9809;SDS011;4944;52.514;13.192;2022-11-11T12:29:02;1.37;;;1.27;;
9809;SDS011;4944;52.514;13.192;2022-11-11T12:31:44;3.27;;;1.70;;
9809;SDS011;4944;52.514;13.192;2022-11-11T12:34:25;2.30;;;1.60;;
9809;SDS011;4944;52.514;13.192;2022-11-11T12:37:11;3.23;;;1.70;;
9809;SDS011;4944;52.514;13.192;2022-11-11T12:39:51;2.80;;;1.70;;
9809;SDS011;4944;52.514;13.192;2022-11-11T12:42:36;2.37;;;1.90;;
9809;SDS011;4944;52.514;13.192;2022-11-11T12:45:16;3.60;;;1.80;;
9809;SDS011;4944;52.514;13.192;2022-11-11T12:47:47;1.87;;;1.53;;
9809;SDS011;4944;52.514;13.192;2022-11-11T12:50:24;2.30;;;1.63;;
9809;SDS011;4944;52.514;13.192;2022-11-11T12:53:04;2.53;;;1.80;;
9809;SDS011;4944;52.514;13.192;2022-11-11T12:55:42;2.83;;;1.80;;
9809;SDS011;4944;52.514;13.192;2022-11-11T12:58:18;2.90;;;1.80;;
9809;SDS011;4944;52.514;13.192;2022-11-11T13:00:58;2.83;;;1.70;;
9809;SDS011;4944;52.514;13.192;2022-11-11T13:03:39;3.23;;;1.63;;
9809;SDS011;4944;52.514;13.192;2022-11-11T13:06:23;3.27;;;1.90;;
9809;SDS011;4944;52.514;13.192;2022-11-11T13:09:09;4.17;;;1.70;;
9809;SDS011;4944;52.514;13.192;2022-11-11T13:11:57;2.40;;;1.43;;
9809;SDS011;4944;52.514;13.192;2022-11-11T13:14:38;3.43;;;1.50;;
9809;SDS011;4944;52.514;13.192;2022-11-11T13:17:31;2.53;;;1.47;;
9809;SDS011;4944;52.514;13.192;2022-11-11T13:19:59;2.73;;;1.60;;
9809;SDS011;4944;52.514;13.192;2022-11-11T13:22:31;5.07;;;1.60;;
9809;SDS011;4944;52.514;13.192;2022-11-11T13:25:02;2.90;;;1.77;;
9809;SDS011;4944;52.514;13.192;2022-11-11T13:27:35;1.93;;;1.37;;
9809;SDS011;4944;52.514;13.192;2022-11-11T13:33:01;2.77;;;1.73;;
9809;SDS011;4944;52.514;13.192;2022-11-11T13:35:31;2.93;;;1.63;;
9809;SDS011;4944;52.514;13.192;2022-11-11T13:38:01;1.90;;;1.63;;
9809;SDS011;4944;52.514;13.192;2022-11-11T13:40:32;1.87;;;1.60;;
9809;SDS011;4944;52.514;13.192;2022-11-11T13:43:03;1.80;;;1.50;;
9809;SDS011;4944;52.514;13.192;2022-11-11T13:45:39;1.97;;;1.63;;
9809;SDS011;4944;52.514;13.192;2022-11-11T13:48:14;1.57;;;1.43;;
9809;SDS011;4944;52.514;13.192;2022-11-11T13:50:45;4.27;;;1.70;;
9809;SDS011;4944;52.514;13.192;2022-11-11T13:53:13;3.17;;;1.60;;
9809;SDS011;4944;52.514;13.192;2022-11-11T13:55:51;2.93;;;1.70;;
9809;SDS011;4944;52.514;13.192;2022-11-11T13:58:27;3.57;;;1.60;;
9809;SDS011;4944;52.514;13.192;2022-11-11T14:00:58;2.90;;;1.63;;
9809;SDS011;4944;52.514;13.192;2022-11-11T14:03:27;1.77;;;1.50;;
9809;SDS011;4944;52.514;13.192;2022-11-11T14:12:22;2.73;;;1.67;;
9809;SDS011;4944;52.514;13.192;2022-11-11T14:15:01;1.70;;;1.40;;
9809;SDS011;4944;52.514;13.192;2022-11-11T14:17:32;1.60;;;1.30;;
9809;SDS011;4944;52.514;13.192;2022-11-11T14:23:14;1.83;;;1.40;;
9809;SDS011;4944;52.514;13.192;2022-11-11T14:25:50;3.33;;;1.80;;
9809;SDS011;4944;52.514;13.192;2022-11-11T14:28:41;2.23;;;1.60;;
9809;SDS011;4944;52.514;13.192;2022-11-11T14:31:28;3.13;;;1.60;;
9809;SDS011;4944;52.514;13.192;2022-11-11T14:34:13;5.00;;;2.00;;
9809;SDS011;4944;52.514;13.192;2022-11-11T14:36:49;2.23;;;1.60;;
9809;SDS011;4944;52.514;13.192;2022-11-11T14:39:24;2.77;;;1.80;;
9809;SDS011;4944;52.514;13.192;2022-11-11T14:41:59;2.30;;;1.63;;
9809;SDS011;4944;52.514;13.192;2022-11-11T14:44:41;1.67;;;1.57;;
9809;SDS011;4944;52.514;13.192;2022-11-11T14:47:23;2.93;;;1.80;;
9809;SDS011;4944;52.514;13.192;2022-11-11T14:49:56;1.90;;;1.67;;
9809;SDS011;4944;52.514;13.192;2022-11-11T14:52:25;2.87;;;2.03;;
9809;SDS011;4944;52.514;13.192;2022-11-11T14:55:11;2.97;;;2.13;;
9809;SDS011;4944;52.514;13.192;2022-11-11T14:57:41;4.13;;;2.00;;
9809;SDS011;4944;52.514;13.192;2022-11-11T15:00:13;3.53;;;1.60;;
9809;SDS011;4944;52.514;13.192;2022-11-11T15:02:47;2.57;;;1.73;;
9809;SDS011;4944;52.514;13.192;2022-11-11T15:05:17;2.37;;;1.80;;
9809;SDS011;4944;52.514;13.192;2022-11-11T15:07:55;1.80;;;1.70;;
9809;SDS011;4944;52.514;13.192;2022-11-11T15:10:35;5.40;;;1.90;;
9809;SDS011;4944;52.514;13.192;2022-11-11T15:13:24;3.77;;;1.70;;
9809;SDS011;4944;52.514;13.192;2022-11-11T15:16:07;2.57;;;1.87;;
9809;SDS011;4944;52.514;13.192;2022-11-11T15:18:49;2.70;;;2.23;;
9809;SDS011;4944;52.514;13.192;2022-11-11T15:21:31;2.00;;;1.90;;
9809;SDS011;4944;52.514;13.192;2022-11-11T15:24:06;4.13;;;2.10;;
9809;SDS011;4944;52.514;13.192;2022-11-11T15:26:46;2.60;;;2.07;;
9809;SDS011;4944;52.514;13.192;2022-11-11T15:29:34;2.57;;;1.90;;
9809;SDS011;4944;52.514;13.192;2022-11-11T15:32:15;3.23;;;2.07;;
9809;SDS011;4944;52.514;13.192;2022-11-11T15:34:52;3.27;;;2.47;;
9809;SDS011;4944;52.514;13.192;2022-11-11T15:37:23;3.57;;;1.90;;
9809;SDS011;4944;52.514;13.192;2022-11-11T15:39:53;4.13;;;2.10;;
9809;SDS011;4944;52.514;13.192;2022-11-11T15:42:23;4.20;;;1.83;;
9809;SDS011;4944;52.514;13.192;2022-11-11T15:44:54;4.03;;;2.13;;
9809;SDS011;4944;52.514;13.192;2022-11-11T15:47:22;5.23;;;2.17;;